Carnival Liberty — HPYE — position and weather

sailwx.info

Track history (hours):
 
Tides and Currents Weather Stations Pressure Air Temp Water Temp Dewpoint Dewpoint Depression Visibility Wind Speed Wind Dir Waves Ship Positions

Carnival Liberty

Last reported at 2016-Aug-27 21:26 UTC. Time now 2016-Aug-28 16:45 UTC.
Position N 29°19' W 094°47'.

Type: Ship. MMSI: 371083000.

Date/timePositionNaut miles runAvg speedWind from/ knotsBaromVisibWave heightAir tempDewpointWater temp
2016-Aug-27 21:26N 29°19' W 094°47'1 0.7
2016-Aug-27 19:23N 29°19' W 094°48'0 0.0
2016-Aug-27 13:27N 29°19' W 094°48'0 0.2
2016-Aug-27 12:33N 29°19' W 094°48'  
2016-Aug-25 00:10N 20°44' W 086°52'1220.3
2016-Aug-24 23:33N 20°33' W 086°60'5 4.7
2016-Aug-24 22:32N 20°29' W 086°59'0 0.0
2016-Aug-24 21:26N 20°29' W 086°59'0 0.0
2016-Aug-24 20:31N 20°29' W 086°59'0 0.0
2016-Aug-24 19:31N 20°29' W 086°59'0 0.0
2016-Aug-24 18:33N 20°29' W 086°59'0 0.0
2016-Aug-24 17:30N 20°29' W 086°59'0 0.0
2016-Aug-24 16:23N 20°29' W 086°59'0 0.0
2016-Aug-24 15:34N 20°29' W 086°59'0 0.0
2016-Aug-24 14:33N 20°29' W 086°59'0 0.0
2016-Aug-24 13:33N 20°29' W 086°59'7 6.8
2016-Aug-24 12:33N 20°35' W 086°58'63317.5
2016-Aug-23 00:23N 28°57' W 094°04'1917.8
2016-Aug-22 23:18N 29°08' W 094°22'2413.7
2016-Aug-22 21:32N 29°20' W 094°47'7 0.7
2016-Aug-22 11:31N 29°19' W 094°39'1414.9
2016-Aug-22 10:33N 29°11' W 094°25'1515.3
2016-Aug-22 09:33N 29°02' W 094°11'64018.3
2016-Aug-20 22:34N 20°38' W 086°56'10 9.6
2016-Aug-20 21:33N 20°29' W 086°59'0 0.0
2016-Aug-20 20:33N 20°29' W 086°59'0 0.0
2016-Aug-20 19:32N 20°29' W 086°59'0 0.0
2016-Aug-20 18:29N 20°29' W 086°59'0 0.0
2016-Aug-20 17:29N 20°29' W 086°59'0 0.0
2016-Aug-20 16:31N 20°29' W 086°59'0 0.0
2016-Aug-20 15:28N 20°29' W 086°59'0 0.0
2016-Aug-20 14:33N 20°29' W 086°59'0 0.0
2016-Aug-20 13:33N 20°29' W 086°59'6 5.9
2016-Aug-20 12:33N 20°35' W 086°59'1312.9
2016-Aug-20 11:32N 20°45' W 086°50'67117.6
2016-Aug-18 21:27N 29°19' W 094°47'0 0.4
2016-Aug-18 20:20N 29°19' W 094°48'0 0.0
2016-Aug-18 19:31N 29°19' W 094°48'0 0.0
2016-Aug-18 16:20N 29°19' W 094°48'0 0.0
2016-Aug-18 13:07N 29°19' W 094°48'0 0.5
2016-Aug-18 12:33N 29°19' W 094°47'10 8.4
2016-Aug-18 11:25N 29°18' W 094°37'  
Track history (hours):
 
Tides and Currents Weather Stations Pressure Air Temp Water Temp Dewpoint Dewpoint Depression Visibility Wind Speed Wind Dir Waves Ship Positions

Carnival Liberty

Last reported at 2016-Aug-27 21:26 UTC. Time now 2016-Aug-28 16:45 UTC.
Position N 29°19' W 094°47'.

Type: Ship. MMSI: 371083000.

Date/timePositionNaut miles runAvg speedWind from/ knotsBaromVisibWave heightAir tempDewpointWater temp
2016-Aug-27 21:26N 29°19' W 094°47'1 0.7
2016-Aug-27 19:23N 29°19' W 094°48'0 0.0
2016-Aug-27 13:27N 29°19' W 094°48'0 0.2
2016-Aug-27 12:33N 29°19' W 094°48'  
2016-Aug-25 00:10N 20°44' W 086°52'1220.3
2016-Aug-24 23:33N 20°33' W 086°60'5 4.7
2016-Aug-24 22:32N 20°29' W 086°59'0 0.0
2016-Aug-24 21:26N 20°29' W 086°59'0 0.0
2016-Aug-24 20:31N 20°29' W 086°59'0 0.0
2016-Aug-24 19:31N 20°29' W 086°59'0 0.0
2016-Aug-24 18:33N 20°29' W 086°59'0 0.0
2016-Aug-24 17:30N 20°29' W 086°59'0 0.0
2016-Aug-24 16:23N 20°29' W 086°59'0 0.0
2016-Aug-24 15:34N 20°29' W 086°59'0 0.0
2016-Aug-24 14:33N 20°29' W 086°59'0 0.0
2016-Aug-24 13:33N 20°29' W 086°59'7 6.8
2016-Aug-24 12:33N 20°35' W 086°58'63317.5
2016-Aug-23 00:23N 28°57' W 094°04'1917.8
2016-Aug-22 23:18N 29°08' W 094°22'2413.7
2016-Aug-22 21:32N 29°20' W 094°47'7 0.7
2016-Aug-22 11:31N 29°19' W 094°39'1414.9
2016-Aug-22 10:33N 29°11' W 094°25'1515.3
2016-Aug-22 09:33N 29°02' W 094°11'64018.3
2016-Aug-20 22:34N 20°38' W 086°56'10 9.6
2016-Aug-20 21:33N 20°29' W 086°59'0 0.0
2016-Aug-20 20:33N 20°29' W 086°59'0 0.0
2016-Aug-20 19:32N 20°29' W 086°59'0 0.0
2016-Aug-20 18:29N 20°29' W 086°59'0 0.0
2016-Aug-20 17:29N 20°29' W 086°59'0 0.0
2016-Aug-20 16:31N 20°29' W 086°59'0 0.0
2016-Aug-20 15:28N 20°29' W 086°59'0 0.0
2016-Aug-20 14:33N 20°29' W 086°59'0 0.0
2016-Aug-20 13:33N 20°29' W 086°59'6 5.9
2016-Aug-20 12:33N 20°35' W 086°59'1312.9
2016-Aug-20 11:32N 20°45' W 086°50'67117.6
2016-Aug-18 21:27N 29°19' W 094°47'0 0.4
2016-Aug-18 20:20N 29°19' W 094°48'0 0.0
2016-Aug-18 19:31N 29°19' W 094°48'0 0.0
2016-Aug-18 16:20N 29°19' W 094°48'0 0.0
2016-Aug-18 13:07N 29°19' W 094°48'0 0.5
2016-Aug-18 12:33N 29°19' W 094°47'10 8.4
2016-Aug-18 11:25N 29°18' W 094°37'  

Dump ship's entire track history